Buraimi, Oman
Current Conditions -  °F | °C
As of 7:00 PM on Sunday 21 Dec 2014 (Local Time) from OMAL Reporting Station
Clear Clear  
Wind Chill: 70°   Ceiling: Unl
Heat Index: 70°   Visibility: 6mi
Dew Point: 45°   Wind: 6mph
Humidity: 40%   Direction: 250°WSW
Pressure: 30"   Gusts: NA
Location:  24.25°N, 55.79°E
Report Text: OMAL 211500Z 25005KT CAVOK 21/07 Q1016 A3000BECMG 35008KT
Loading
Personal Weather Stations






























Interactive Weather Map New forecast layout! Learn more

10-Day Weather Forecast

Advertisements
Track Severe Weather on mobile